Stokes, North Carolina
Current Conditions -  °F | °C
As of 11:55 AM on Friday 28 Nov 2014 (Local Time) from KPGV Reporting Station
Clear Clear  
Wind Chill: 36°   Ceiling: Unl
Heat Index: 43°   Visibility: 10mi
Dew Point: 23°   Wind: 13mph
Humidity: 46%   Direction: 350°N
Pressure: 30.33"   Gusts: NA
Location:  35.72°N, 77.26°W
Report Text: KPGV 281655Z AUTO 35011KT 10SM CLR 06/M05 A3033 RMK AO2
Loading
Personal Weather Stations






























Interactive Weather Map New forecast layout! Learn more

10-Day Weather Forecast

Advertisements
Track Severe Weather on mobile